Thunder radar more information blitzortung!


Radar de pluja more information rain snow radar


Visita la nostra xarxa de llocs de meteo:

Template documentation
and downloads

And another site



No particular awareness of the weather is required.    There are no Weather-warnings

Pagina Historial Weather Underground text

Diari Resum Agost 24, 2017 Unitats:  Mètric    Imperial   Tant
« Previous Dia
SegĂźent Dia »
Diari Setmana Mensual Anual Personalitzada
  Maxima: Minima: Media:
Temperatura: -17.8 °C -6.3 °C -2.6 °C
Punt de rosada: -17.8 °C -13.1 °C -10.3 °C
Humitat: Humidity % 25 % 45 %
Wind Speed: 0 km/h 0 km/h 9.3 km/h
RĂ fegues de vent: 0 km/h - -
Vent:- - SW
Pression baro: 0 hPa 34361.1 hPa -
Precipitacions: 0 mm    
Historical Graphs
 
 
Dades de taula per Agost 24, 2017
Temps Temperatura Punt de rosada Pression baro Vent Wind Speed RĂ fegues de vent Humitat Rainfall Rate (Hourly)
-17.8 °C -17.8 °C 0 hPa Calm     Humidity % 0 mm
00:00 -5.6 °C -8.6 °C 34395 hPa WSW 7.7 km/h 15.6 km/h 72 % 0 mm
00:02 -4.9 °C -8.1 °C 34395 hPa SSW 6.3 km/h 6.3 km/h 70 % 0 mm
00:07 -4.9 °C -8 °C 34395 hPa SW 3.7 km/h 3.7 km/h 71 % 0 mm
00:10 -5.5 °C -9.2 °C 34395 hPa WSW 2.6 km/h 7.7 km/h 66 % 0 mm
00:20 -5.5 °C -9.3 °C 34395 hPa Calm   5.1 km/h 65 % 0 mm
00:30 -5.5 °C -9.7 °C 34361.1 hPa Calm   2.6 km/h 62 % 0 mm
00:40 -5.6 °C -9.4 °C 34361.1 hPa SW 5.1 km/h 12.9 km/h 65 % 0 mm
00:50 -5.7 °C -9.6 °C 34361.1 hPa SW 5.1 km/h 10.3 km/h 65 % 0 mm
01:00 -5.6 °C -9.4 °C 34361.1 hPa WSW 7.7 km/h 15.6 km/h 65 % 0 mm
01:10 -5.6 °C -9.7 °C 34361.1 hPa SW 2.6 km/h 7.7 km/h 63 % 0 mm
01:30 -5.7 °C -9.6 °C 34361.1 hPa WSW 2.6 km/h 5.1 km/h 64 % 0 mm
01:40 -5.7 °C -9.7 °C 34361.1 hPa Calm   5.1 km/h 64 % 0 mm
01:50 -5.7 °C -9.8 °C 34361.1 hPa SW 2.6 km/h 5.1 km/h 63 % 0 mm
02:00 -5.8 °C -9.9 °C 34361.1 hPa Calm   5.1 km/h 63 % 0 mm
02:10 -5.8 °C -9.8 °C 34361.1 hPa SW 7.7 km/h 7.7 km/h 63 % 0 mm
02:20 -5.8 °C -9.9 °C 34361.1 hPa WSW 2.6 km/h 7.7 km/h 63 % 0 mm
02:30 -5.8 °C -10 °C 34361.1 hPa West 2.6 km/h 5.1 km/h 62 % 0 mm
02:40 -5.9 °C -10.2 °C 34361.1 hPa SW 5.1 km/h 7.7 km/h 62 % 0 mm
02:50 -6 °C -10.1 °C 34361.1 hPa SW 2.6 km/h 5.1 km/h 63 % 0 mm
03:00 -6 °C -10.1 °C 34361.1 hPa Calm   5.1 km/h 63 % 0 mm
03:10 -5.9 °C -10.1 °C 34361.1 hPa SSW 2.6 km/h 5.1 km/h 62 % 0 mm
03:20 -5.9 °C -10.1 °C 34361.1 hPa West 2.6 km/h 2.6 km/h 62 % 0 mm
03:30 -5.7 °C -9.9 °C 34361.1 hPa WNW 2.6 km/h 5.1 km/h 62 % 0 mm
03:40 -5.7 °C -10.1 °C 34361.1 hPa North 2.6 km/h 5.1 km/h 61 % 0 mm
03:50 -5.8 °C -10.1 °C 34361.1 hPa NE 2.6 km/h 5.1 km/h 61 % 0 mm
04:00 -5.8 °C -10.1 °C 34361.1 hPa ENE 5.1 km/h 5.1 km/h 61 % 0 mm
04:10 -5.7 °C -10.1 °C 34361.1 hPa WSW 2.6 km/h 7.7 km/h 61 % 0 mm
04:20 -5.6 °C -9.9 °C 34361.1 hPa WSW 2.6 km/h 7.7 km/h 61 % 0 mm
04:40 -5.1 °C -9.7 °C 34395 hPa Calm   5.1 km/h 60 % 0 mm
04:50 -4.8 °C -9.6 °C 34361.1 hPa SW 2.6 km/h 2.6 km/h 59 % 0 mm
05:00 -4.9 °C -9.7 °C 34395 hPa Calm   5.1 km/h 58 % 0 mm
09:00 -0.3 °C -8.2 °C 34395 hPa SW 7.7 km/h 15.6 km/h 43 % 0 mm
09:10 -0.2 °C -8.2 °C 34395 hPa SW 7.7 km/h 20.8 km/h 42 % 0 mm
09:20 0.2 °C -7.9 °C 34395 hPa SW 5.1 km/h 10.3 km/h 42 % 0 mm
09:30 0.1 °C -8.2 °C 34395 hPa SW 15.6 km/h 15.6 km/h 41 % 0 mm
09:40 0.2 °C -8.3 °C 34395 hPa SW 12.9 km/h 20.8 km/h 40 % 0 mm
09:50 0.7 °C -8.4 °C 34395 hPa SW 7.7 km/h 12.9 km/h 38 % 0 mm
10:04 -5.1 °C -8.8 °C 34361.1 hPa SSW 6 km/h 6 km/h 66 % 0 mm
10:09 -5.1 °C -8.8 °C 34361.1 hPa ESE 3.1 km/h   66 % 0 mm
10:14 -5 °C -8.7 °C 34395 hPa WNW 3.1 km/h   66 % 0 mm
10:19 -4.9 °C -8.6 °C 34395 hPa SSE 6 km/h 6 km/h 66 % 0 mm
10:24 -4.7 °C -8.4 °C 34395 hPa SSE 6.8 km/h 6.8 km/h 66 % 0 mm
10:29 -4.5 °C -8.4 °C 34395 hPa SSE 4.2 km/h 4.2 km/h 65 % 0 mm
10:34 -4.4 °C -8.6 °C 34395 hPa SSE 6 km/h 6 km/h 63 % 0 mm
10:39 -4.4 °C -8.7 °C 34395 hPa NNE 7.6 km/h 7.6 km/h 62 % 0 mm
10:44 -4.4 °C -8.3 °C 34361.1 hPa West 6.8 km/h 6.8 km/h 65 % 0 mm
10:49 -4.7 °C -8.3 °C 34361.1 hPa West 9 km/h 9 km/h 67 % 0 mm
10:54 -4.8 °C -8.2 °C 34361.1 hPa NNW 3.7 km/h 3.7 km/h 68 % 0 mm
10:59 -4.7 °C -7.9 °C 34395 hPa East 4.2 km/h 4.2 km/h 70 % 0 mm
11:04 -4.4 °C -7.9 °C 34395 hPa WNW 6 km/h 6 km/h 68 % 0 mm
11:09 -4 °C -7.8 °C 34395 hPa NNE 11.9 km/h 11.9 km/h 66 % 0 mm
11:14 -3.7 °C -7.9 °C 34395 hPa WNW 9.3 km/h 9.3 km/h 63 % 0 mm
11:52 -2.2 °C -7.8 °C 34395 hPa WSW 9 km/h 9 km/h 54 % 0 mm
11:57 -1.8 °C -7.7 °C 34395 hPa West 15 km/h 15 km/h 53 % 0 mm
12:02 -1.7 °C -7.7 °C 34395 hPa West 11.9 km/h 12.2 km/h 52 % 0 mm
12:07 -1.6 °C -7.8 °C 34395 hPa SW 15 km/h 15 km/h 51 % 0 mm
12:12 -1.5 °C -7.7 °C 34395 hPa West 11.9 km/h 11.9 km/h 51 % 0 mm
12:17 -1.3 °C -7.7 °C 34395 hPa WSW 11.9 km/h 11.9 km/h 50 % 0 mm
12:18 -1.3 °C -7.7 °C 34395 hPa West 11.9 km/h 11.9 km/h 50 % 0 mm
12:23 -1.2 °C -7.6 °C 34395 hPa WSW 15 km/h 15 km/h 50 % 0 mm
12:28 -1.1 °C -7.7 °C 34395 hPa SW 16.6 km/h 16.6 km/h 49 % 0 mm
12:33 -0.9 °C -7.7 °C 34395 hPa SW 9 km/h 9 km/h 48 % 0 mm
12:38 -0.5 °C -7.6 °C 34395 hPa WSW 11.9 km/h 11.9 km/h 47 % 0 mm
12:43 -0.4 °C -7.6 °C 34395 hPa SW 11.9 km/h 11.9 km/h 46 % 0 mm
14:55 0.6 °C -9.4 °C 34361.1 hPa South 26.9 km/h 26.9 km/h 34 % 0 mm
15:00 0.7 °C -9.1 °C 34361.1 hPa WSW 15 km/h 15 km/h 35 % 0 mm
15:05 0.8 °C -9 °C 34361.1 hPa South 15 km/h 15 km/h 35 % 0 mm
15:10 1.1 °C -8.7 °C 34361.1 hPa West 8 km/h 8.5 km/h 35 % 0 mm
15:15 1.1 °C -9.5 °C 34361.1 hPa South 26.9 km/h 26.9 km/h 32 % 0 mm
15:20 1.2 °C -9.1 °C 34361.1 hPa WSW 15 km/h 16.6 km/h 33 % 0 mm
15:25 0.8 °C -9.4 °C 34361.1 hPa SW 20.9 km/h 20.9 km/h 33 % 0 mm
15:30 0.9 °C -9.3 °C 34361.1 hPa SW 11.9 km/h 11.9 km/h 33 % 0 mm
15:35 1.3 °C -9.3 °C 34361.1 hPa SSW 12.7 km/h 12.7 km/h 32 % 0 mm
15:40 1.1 °C -10.3 °C 34361.1 hPa SW 26.9 km/h 26.9 km/h 29 % 0 mm
15:45 0.9 °C -10.7 °C 34361.1 hPa SE 26.9 km/h 26.9 km/h 28 % 0 mm
15:50 0.9 °C -10.7 °C 34361.1 hPa WSW 29.8 km/h 29.8 km/h 28 % 0 mm
15:55 1 °C -10.7 °C 34361.1 hPa South 17.9 km/h 17.9 km/h 28 % 0 mm
16:00 1.2 °C -10.6 °C 34361.1 hPa SSW 18.3 km/h 18.3 km/h 28 % 0 mm
16:05 0.9 °C -10.8 °C 34361.1 hPa SSW 26.9 km/h 26.9 km/h 28 % 0 mm
16:10 0.9 °C -10.8 °C 34361.1 hPa SW 15 km/h 17.4 km/h 28 % 0 mm
16:11 0.9 °C -10.8 °C 34361.1 hPa South 29.8 km/h 29.8 km/h 28 % 0 mm
16:16 0.4 °C -11.5 °C 34361.1 hPa SW 17.9 km/h 17.9 km/h 27 % 0 mm
16:21 0.7 °C -10.9 °C 34361.1 hPa WSW 15 km/h 15 km/h 28 % 0 mm
16:26 0.7 °C -11.3 °C 34361.1 hPa SSW 16.1 km/h 16.1 km/h 27 % 0 mm
16:31 0.9 °C -11.1 °C 34361.1 hPa SSW 15 km/h 15 km/h 27 % 0 mm
16:36 1.3 °C -10.8 °C 34361.1 hPa SW 7.6 km/h 7.6 km/h 27 % 0 mm
16:41 1.2 °C -10.8 °C 34361.1 hPa SSW 17.9 km/h 17.9 km/h 27 % 0 mm
16:46 1.1 °C -10.9 °C 34361.1 hPa SW 20.9 km/h 20.9 km/h 27 % 0 mm
16:51 1 °C -11 °C 34361.1 hPa WSW 20.3 km/h 20.3 km/h 27 % 0 mm
16:56 1 °C -10.7 °C 34361.1 hPa SSW 20.9 km/h 20.9 km/h 28 % 0 mm
17:01 0.9 °C -10.8 °C 34361.1 hPa SW 11.9 km/h 11.9 km/h 28 % 0 mm
17:06 0.8 °C -10.8 °C 34361.1 hPa SW 14.5 km/h 14.5 km/h 28 % 0 mm
17:11 0.8 °C -11.2 °C 34361.1 hPa SW 15 km/h 15 km/h 27 % 0 mm
17:16 0.9 °C -11.1 °C 34361.1 hPa South 17.9 km/h 17.9 km/h 27 % 0 mm
17:21 0.9 °C -11.3 °C 34361.1 hPa SW 17.9 km/h 17.9 km/h 26 % 0 mm
17:26 0.8 °C -11.2 °C 34361.1 hPa SW 15 km/h 15 km/h 27 % 0 mm
17:31 0.8 °C -11.2 °C 34361.1 hPa SW 12.2 km/h 12.2 km/h 27 % 0 mm
17:36 0.9 °C -11.1 °C 34361.1 hPa SSE 9 km/h 9.3 km/h 27 % 0 mm
17:41 1 °C -11 °C 34361.1 hPa SSW 15 km/h 15 km/h 27 % 0 mm
17:46 0.7 °C -11.6 °C 34361.1 hPa SSW 15 km/h 15 km/h 26 % 0 mm
17:51 0.6 °C -11.7 °C 34361.1 hPa SSW 17.9 km/h 17.9 km/h 26 % 0 mm
17:56 0.7 °C -11.6 °C 34361.1 hPa SSW 29.8 km/h 29.8 km/h 26 % 0 mm
18:01 0.6 °C -11.7 °C 34361.1 hPa WSW 16.6 km/h 16.6 km/h 26 % 0 mm
18:06 0.6 °C -11.7 °C 34361.1 hPa SW 15 km/h 16.6 km/h 26 % 0 mm
18:11 0.4 °C -11.8 °C 34361.1 hPa SW 15 km/h 15 km/h 26 % 0 mm
18:16 0.5 °C -11.8 °C 34361.1 hPa SSW 17.9 km/h 17.9 km/h 26 % 0 mm
18:21 0.3 °C -12.3 °C 34361.1 hPa WSW 15 km/h 15 km/h 25 % 0 mm
18:26 0.4 °C -11.8 °C 34361.1 hPa SSW 15 km/h 15 km/h 26 % 0 mm
18:31 0.3 °C -12.3 °C 34361.1 hPa SW 22.5 km/h 22.5 km/h 25 % 0 mm
18:36 0 °C -12.5 °C 34361.1 hPa SW 15 km/h 15 km/h 25 % 0 mm
18:41 0 °C -12.5 °C 34361.1 hPa SW 15 km/h 15 km/h 25 % 0 mm
18:46 0 °C -12.5 °C 34361.1 hPa WSW 15 km/h 15 km/h 25 % 0 mm
18:51 -0.2 °C -12.6 °C 34361.1 hPa WNW 17.9 km/h 17.9 km/h 25 % 0 mm
18:56 -0.2 °C -12.6 °C 34361.1 hPa SW 17.9 km/h 17.9 km/h 25 % 0 mm
19:01 -0.2 °C -12.7 °C 34361.1 hPa SW 17.9 km/h 17.9 km/h 25 % 0 mm
19:06 -0.4 °C -12.5 °C 34361.1 hPa WSW 24.3 km/h 24.3 km/h 26 % 0 mm
19:11 -0.6 °C -12.7 °C 34361.1 hPa SW 8.5 km/h 8.5 km/h 26 % 0 mm
19:16 -0.6 °C -12.7 °C 34361.1 hPa SSW 17.9 km/h 17.9 km/h 26 % 0 mm
19:21 -0.8 °C -12.8 °C 34361.1 hPa SW 15 km/h 15 km/h 26 % 0 mm
19:26 -0.9 °C -12.9 °C 34361.1 hPa SW 15 km/h 15 km/h 26 % 0 mm
19:31 -1.1 °C -13.1 °C 34361.1 hPa WSW 15 km/h 15 km/h 26 % 0 mm
19:41 -1.3 °C -13 °C 34361.1 hPa SW 15 km/h 15 km/h 27 % 0 mm
19:46 -1.4 °C -13.1 °C 34361.1 hPa SW 12.2 km/h 12.2 km/h 27 % 0 mm
19:51 -1.6 °C -12.9 °C 34361.1 hPa SW 12.2 km/h 12.2 km/h 28 % 0 mm
19:56 -1.7 °C -12.9 °C 34361.1 hPa WSW 11.9 km/h 11.9 km/h 28 % 0 mm
20:01 -1.8 °C -12.8 °C 34361.1 hPa SW 17.9 km/h 17.9 km/h 29 % 0 mm
20:06 -1.9 °C -12.9 °C 34361.1 hPa SW 17.9 km/h 17.9 km/h 29 % 0 mm
20:11 -2.1 °C -13 °C 34361.1 hPa South 9 km/h 9 km/h 29 % 0 mm
20:16 -2.2 °C -13.1 °C 34361.1 hPa SW 15 km/h 15 km/h 29 % 0 mm
20:21 -2.3 °C -12.9 °C 34361.1 hPa WSW 11.9 km/h 11.9 km/h 30 % 0 mm
20:26 -2.4 °C -13 °C 34361.1 hPa SW 6.8 km/h 6.8 km/h 30 % 0 mm
20:31 -2.6 °C -12.9 °C 34361.1 hPa WSW 9 km/h 9 km/h 31 % 0 mm
20:36 -2.7 °C -12.7 °C 34361.1 hPa SW 9 km/h 9 km/h 32 % 0 mm
20:41 -2.8 °C -12.8 °C 34361.1 hPa SSW 8 km/h 8 km/h 32 % 0 mm
20:46 -2.9 °C -12.4 °C 34361.1 hPa SW 9 km/h 9 km/h 34 % 0 mm
20:51 -3.1 °C -12.3 °C 34361.1 hPa WSW 6 km/h 6 km/h 35 % 0 mm
20:56 -3.1 °C -12.2 °C 34361.1 hPa WSW 6 km/h 6 km/h 36 % 0 mm
21:01 -3.2 °C -12.3 °C 34361.1 hPa SW 6 km/h 6 km/h 36 % 0 mm
21:06 -3.3 °C -12.1 °C 34361.1 hPa SW 6 km/h 6 km/h 37 % 0 mm
21:11 -3.4 °C -12.2 °C 34395 hPa WSW 6.3 km/h 6.3 km/h 37 % 0 mm
21:12 -3.4 °C -12.2 °C 34395 hPa WSW 6.8 km/h 6.8 km/h 37 % 0 mm
21:17 -3.4 °C -12 °C 34395 hPa WSW 6.3 km/h 6.3 km/h 38 % 0 mm
21:22 -3.5 °C -11.8 °C 34395 hPa West 11.9 km/h 11.9 km/h 39 % 0 mm
21:27 -3.6 °C -11.7 °C 34395 hPa SW 6 km/h 6 km/h 40 % 0 mm
21:32 -3.7 °C -11.6 °C 34395 hPa WSW 6 km/h 6 km/h 41 % 0 mm
21:37 -3.8 °C -11.7 °C 34395 hPa WSW 6.3 km/h 6.3 km/h 41 % 0 mm
21:42 -3.8 °C -11.7 °C 34361.1 hPa West 5.1 km/h 5.6 km/h 41 % 0 mm
21:47 -3.8 °C -11.5 °C 34361.1 hPa WSW 6 km/h 6 km/h 42 % 0 mm
21:52 -3.9 °C -11.6 °C 34361.1 hPa SW 6 km/h 6 km/h 42 % 0 mm
21:57 -3.9 °C -11.2 °C 34361.1 hPa WSW 6 km/h 6 km/h 44 % 0 mm
22:02 -3.9 °C -11 °C 34361.1 hPa WSW 3.1 km/h 3.1 km/h 45 % 0 mm
22:07 -3.9 °C -11 °C 34361.1 hPa WSW 6.3 km/h 6.3 km/h 45 % 0 mm
22:12 -3.9 °C -10.8 °C 34395 hPa WSW 6 km/h 6 km/h 46 % 0 mm
22:17 -3.9 °C -10.7 °C 34395 hPa WSW 6 km/h 6 km/h 47 % 0 mm
22:22 -4 °C -10.5 °C 34395 hPa SW 3.1 km/h   48 % 0 mm
22:27 -4.1 °C -10.4 °C 34395 hPa SW 3.1 km/h 3.1 km/h 49 % 0 mm
22:32 -4.1 °C -10.4 °C 34395 hPa Calm     49 % 0 mm
22:37 -4.2 °C -10.3 °C 34395 hPa WSW 3.1 km/h   50 % 0 mm
22:42 -4.2 °C -10.2 °C 34395 hPa Calm     51 % 0 mm
22:47 -4.3 °C -10.3 °C 34395 hPa WNW 3.1 km/h 3.1 km/h 51 % 0 mm
22:50 -6.2 °C -8.9 °C 34395 hPa Calm     74 % 0 mm
22:52 -4.3 °C -10.2 °C 34395 hPa Calm     52 % 0 mm
22:57 -4.4 °C -10.2 °C 34395 hPa Calm     52 % 0 mm
23:00 -6.2 °C -8.8 °C 34395 hPa Calm     74 % 0 mm
23:02 -4.4 °C -10.2 °C 34395 hPa Calm     52 % 0 mm
23:07 -4.5 °C -10.2 °C 34395 hPa Calm     53 % 0 mm
23:10 -6.2 °C -8.9 °C 34395 hPa Calm   2.6 km/h 74 % 0 mm
23:12 -4.6 °C -9.9 °C 34395 hPa Calm     55 % 0 mm
23:17 -4.6 °C -9.9 °C 34395 hPa NNE 3.1 km/h   55 % 0 mm
23:20 -6.2 °C -8.9 °C 34395 hPa Calm     74 % 0 mm
23:22 -4.7 °C -9.9 °C 34395 hPa NNE 3.1 km/h 3.1 km/h 55 % 0 mm
23:27 -4.7 °C -9.7 °C 34395 hPa Calm     57 % 0 mm
23:28 -4.7 °C -9.7 °C 34395 hPa Calm     57 % 0 mm
23:30 -6.2 °C -8.8 °C 34395 hPa SSE 2.6 km/h 5.1 km/h 75 % 0 mm
23:33 -4.7 °C -9.4 °C 34395 hPa Calm     59 % 0 mm
23:38 -4.8 °C -9.3 °C 34395 hPa Calm     60 % 0 mm
23:40 -6.3 °C -8.8 °C 34395 hPa Calm   2.6 km/h 75 % 0 mm
23:43 -4.8 °C -9.4 °C 34428.8 hPa Calm     60 % 0 mm
23:48 -4.9 °C -9.6 °C 34428.8 hPa Calm     59 % 0 mm
23:50 -6.3 °C -8.9 °C 34395 hPa Calm     75 % 0 mm
23:53 -4.9 °C -9.2 °C 34428.8 hPa WSW 3.1 km/h 3.1 km/h 62 % 0 mm
23:58 -4.9 °C -9.1 °C 34395 hPa Calm     63 % 0 mm
Meteo Sesrovires
Elogis d' Weather Underground - 2 mb

Guio original per  Jim McMurry - jmcmurry@mwt.net Adaptat per a la plantilla per  Wim van der Kuil - Leuven-Template.eu

Trobareu la nostra informacio del temps tambe a:

Weather Underground

AWEKAS